Terminal Aerodrome Forecast
Issued by NWS

Current Version | Previous Version | Graphics & Text | Print | Product List | Glossary On
Versions: 1 2 3 4 5 6 7 8 9 10 11 12 13 14 15 16 17 18 19 20 21 22 23 24 25 26 27 28 29 30 31 32 33 34 35 36 37 38 39 40 41 42 43 44 45 46 47 48 49 50
000
FTUS41 KRNK 021135
TAFLWB
TAF
KLWB 021135Z 0212/0312 00000KT P6SM SCT040 BKN100 OVC250
     FM021400 24006KT P6SM SCT045 OVC120
     FM021830 25008KT P6SM VCTS BKN040CB OVC100
      TEMPO 0219/0223 24010G20KT 4SM TSRA BR BKN035CB
     FM030200 26005KT P6SM VCSH SCT030 BKN045 OVC080
     FM030400 00000KT 5SM BR OVC030
      TEMPO 0308/0312 2SM BR=

USA.gov is the U.S. government's official web portal to all federal, state and local government web resources and services.